createdAt,value
2018-04-11T00:00:37.966Z,6.10
2018-04-11T00:03:06.289Z,6.00
2018-04-11T00:05:33.849Z,6.00
2018-04-11T00:08:01.424Z,5.90
2018-04-11T00:10:29.010Z,5.90
2018-04-11T00:12:56.540Z,6.00
2018-04-11T00:15:24.075Z,6.00
2018-04-11T00:17:52.927Z,5.80
2018-04-11T00:20:20.795Z,5.80
2018-04-11T00:22:49.120Z,5.80
2018-04-11T00:25:16.848Z,5.80
2018-04-11T00:27:47.805Z,5.80
2018-04-11T00:30:15.621Z,5.80
2018-04-11T00:32:43.924Z,5.80
2018-04-11T00:35:11.454Z,5.80
2018-04-11T00:37:38.987Z,5.80
2018-04-11T00:40:06.552Z,5.80
2018-04-11T00:42:34.107Z,5.80
2018-04-11T00:45:01.837Z,5.80
2018-04-11T00:47:29.577Z,5.80
2018-04-11T00:49:57.485Z,5.80
2018-04-11T00:52:25.003Z,5.80
2018-04-11T00:54:52.543Z,5.70
2018-04-11T00:57:20.884Z,5.70
2018-04-11T00:59:48.417Z,5.70
2018-04-11T01:02:16.097Z,5.70
2018-04-11T01:04:43.702Z,5.60
2018-04-11T01:07:11.218Z,5.60
2018-04-11T01:09:38.745Z,5.60
2018-04-11T01:12:06.280Z,5.60
2018-04-11T01:14:34.586Z,5.60
2018-04-11T01:17:02.151Z,5.50
2018-04-11T01:19:29.743Z,5.50
2018-04-11T01:21:57.281Z,5.50
2018-04-11T01:24:24.803Z,5.50
2018-04-11T01:26:52.338Z,5.40
2018-04-11T01:29:19.867Z,5.40
2018-04-11T01:31:47.426Z,5.40
2018-04-11T01:34:14.958Z,5.40
2018-04-11T01:36:42.510Z,5.30
2018-04-11T01:39:10.066Z,5.30
2018-04-11T01:41:37.592Z,5.20
2018-04-11T01:44:05.878Z,5.20
2018-04-11T01:46:33.446Z,5.20
2018-04-11T01:49:01.729Z,5.10
2018-04-11T01:51:29.260Z,5.10
2018-04-11T01:53:57.555Z,5.10
2018-04-11T01:56:25.095Z,5.10
2018-04-11T01:58:53.462Z,4.90
2018-04-11T02:01:21.030Z,4.90
2018-04-11T02:03:48.559Z,4.90
2018-04-11T02:06:16.112Z,4.90
2018-04-11T02:08:43.645Z,4.80
2018-04-11T02:11:11.168Z,4.80
2018-04-11T02:13:39.650Z,4.70
2018-04-11T02:16:07.223Z,4.70
2018-04-11T02:18:34.784Z,4.70
2018-04-11T02:21:02.326Z,4.60
2018-04-11T02:23:30.599Z,4.50
2018-04-11T02:25:58.919Z,4.50
2018-04-11T02:28:27.099Z,4.50
2018-04-11T02:30:54.627Z,4.50
2018-04-11T02:33:22.270Z,4.50
2018-04-11T02:35:51.127Z,4.50
2018-04-11T02:38:18.671Z,4.50
2018-04-11T02:40:46.257Z,4.50
2018-04-11T02:43:13.835Z,4.50
2018-04-11T02:45:42.189Z,4.60
2018-04-11T02:48:09.723Z,4.60
2018-04-11T02:50:37.263Z,4.60
2018-04-11T02:53:04.835Z,4.60
2018-04-11T02:55:32.400Z,4.60
2018-04-11T02:57:59.961Z,4.60
2018-04-11T03:00:27.753Z,4.60
2018-04-11T03:02:55.300Z,4.60
2018-04-11T03:05:22.830Z,4.60
2018-04-11T03:07:50.363Z,4.50
2018-04-11T03:10:17.889Z,4.40
2018-04-11T03:12:45.428Z,4.40
2018-04-11T03:15:12.991Z,4.30
2018-04-11T03:17:40.551Z,4.40
2018-04-11T03:20:08.136Z,4.40
2018-04-11T03:22:36.436Z,4.30
2018-04-11T03:25:03.968Z,4.30
2018-04-11T03:27:32.258Z,4.30
2018-04-11T03:29:59.808Z,4.30
2018-04-11T03:32:28.124Z,4.30
2018-04-11T03:34:55.687Z,4.30
2018-04-11T03:37:23.248Z,4.20
2018-04-11T03:39:50.802Z,4.20
2018-04-11T03:42:18.353Z,4.20
2018-04-11T03:44:45.883Z,4.20
2018-04-11T03:47:13.426Z,4.20
2018-04-11T03:49:41.010Z,4.20
2018-04-11T03:52:08.539Z,4.20
2018-04-11T03:54:36.091Z,4.20
2018-04-11T03:57:03.614Z,4.20
2018-04-11T03:59:31.213Z,4.20
2018-04-11T04:01:58.724Z,4.10
2018-04-11T04:04:26.251Z,4.10
2018-04-11T04:06:53.777Z,4.10
2018-04-11T04:09:21.364Z,4.00
2018-04-11T04:11:48.903Z,4.00
2018-04-11T04:14:28.314Z,3.90
2018-04-11T04:17:07.849Z,3.90
2018-04-11T04:19:47.613Z,3.90
2018-04-11T04:22:15.238Z,3.90
2018-04-11T04:24:42.796Z,3.80
2018-04-11T04:27:11.107Z,3.80
2018-04-11T04:29:38.651Z,3.80
2018-04-11T04:32:06.231Z,3.80
2018-04-11T04:34:33.765Z,3.80
2018-04-11T04:37:01.330Z,3.70
2018-04-11T04:39:28.887Z,3.70
2018-04-11T04:41:56.442Z,3.70
2018-04-11T04:44:23.992Z,3.70
2018-04-11T04:46:51.547Z,3.60
2018-04-11T04:49:19.082Z,3.70
2018-04-11T04:51:46.647Z,3.70
2018-04-11T04:54:14.217Z,3.70
2018-04-11T04:56:41.750Z,3.70
2018-04-11T04:59:09.275Z,3.60
2018-04-11T05:01:36.820Z,3.60
2018-04-11T05:04:04.358Z,3.60
2018-04-11T05:06:31.929Z,3.70
2018-04-11T05:08:59.490Z,3.70
2018-04-11T05:11:27.093Z,3.70
2018-04-11T05:13:55.392Z,3.80
2018-04-11T05:16:22.957Z,3.80
2018-04-11T05:18:50.491Z,3.90
2018-04-11T05:21:18.054Z,3.90
2018-04-11T05:23:45.647Z,4.00
2018-04-11T05:26:13.224Z,4.10
2018-04-11T05:28:41.531Z,4.10
2018-04-11T05:31:09.051Z,4.10
2018-04-11T05:33:36.600Z,4.10
2018-04-11T05:36:04.202Z,4.20
2018-04-11T05:38:31.801Z,4.30
2018-04-11T05:40:59.725Z,4.40
2018-04-11T05:43:27.276Z,4.40
2018-04-11T05:45:54.789Z,4.40
2018-04-11T05:48:22.334Z,4.50
2018-04-11T05:50:49.901Z,4.60
2018-04-11T05:53:17.435Z,4.60
2018-04-11T05:55:56.828Z,4.70
2018-04-11T05:58:24.386Z,4.70
2018-04-11T06:00:52.676Z,4.70
2018-04-11T06:03:20.191Z,4.70
2018-04-11T06:05:47.718Z,4.70
2018-04-11T06:08:15.274Z,4.70
2018-04-11T06:10:43.566Z,4.80
2018-04-11T06:13:11.095Z,4.80
2018-04-11T06:15:38.904Z,4.90
2018-04-11T06:18:06.756Z,4.80
2018-04-11T06:20:34.531Z,4.90
2018-04-11T06:23:02.072Z,5.00
2018-04-11T06:25:30.366Z,5.00
2018-04-11T06:27:59.105Z,5.00
2018-04-11T06:30:26.990Z,5.10
2018-04-11T06:33:01.907Z,5.10
2018-04-11T06:35:29.519Z,5.10
2018-04-11T06:37:57.046Z,5.00
2018-04-11T06:40:24.635Z,5.10
2018-04-11T06:42:52.220Z,5.00
2018-04-11T06:45:19.760Z,5.10
2018-04-11T06:47:47.320Z,5.20
2018-04-11T06:50:14.882Z,5.30
2018-04-11T06:52:42.398Z,5.30
2018-04-11T06:55:09.970Z,5.50
2018-04-11T06:57:38.316Z,5.70
2018-04-11T07:00:05.895Z,5.70
2018-04-11T07:02:34.178Z,6.00
2018-04-11T07:05:01.729Z,6.00
2018-04-11T07:07:29.279Z,6.20
2018-04-11T07:09:57.567Z,6.10
2018-04-11T07:12:25.161Z,6.00
2018-04-11T07:14:52.682Z,6.30
2018-04-11T07:17:20.249Z,6.50
2018-04-11T07:19:47.774Z,6.70
2018-04-11T07:22:15.298Z,6.80
2018-04-11T07:24:42.824Z,7.00
2018-04-11T07:27:10.396Z,7.20
2018-04-11T07:29:37.912Z,7.40
2018-04-11T07:32:06.244Z,7.50
2018-04-11T07:34:33.779Z,7.50
2018-04-11T07:37:01.314Z,7.50
2018-04-11T07:39:29.604Z,7.40
2018-04-11T07:41:57.136Z,7.40
2018-04-11T07:44:24.684Z,7.70
2018-04-11T07:46:52.263Z,8.10
2018-04-11T07:49:21.061Z,8.70
2018-04-11T07:51:48.628Z,8.60
2018-04-11T07:54:16.137Z,8.90
2018-04-11T07:56:43.673Z,9.10
2018-04-11T07:59:11.215Z,9.30
2018-04-11T08:01:38.733Z,9.50
2018-04-11T08:04:06.284Z,9.80
2018-04-11T08:06:33.849Z,10.20
2018-04-11T08:09:01.358Z,10.70
2018-04-11T08:11:28.897Z,11.40
2018-04-11T08:13:56.425Z,12.10
2018-04-11T08:16:23.990Z,12.90
2018-04-11T08:18:52.306Z,14.00
2018-04-11T08:21:19.996Z,13.90
2018-04-11T08:23:47.057Z,14.50
2018-04-11T08:26:14.671Z,14.80
2018-04-11T08:28:42.195Z,15.20
2018-04-11T08:31:10.511Z,15.70
2018-04-11T08:33:38.068Z,15.60
2018-04-11T08:36:05.650Z,16.30
2018-04-11T08:38:33.227Z,16.80
2018-04-11T08:41:00.758Z,16.90
2018-04-11T08:43:28.299Z,16.80
2018-04-11T08:45:55.876Z,17.00
2018-04-11T08:48:23.410Z,17.50
2018-04-11T08:50:50.952Z,17.80
2018-04-11T08:53:18.538Z,18.10
2018-04-11T08:55:46.308Z,18.10
2018-04-11T08:58:13.843Z,18.30
2018-04-11T09:00:41.415Z,18.10
2018-04-11T09:03:08.978Z,17.90
2018-04-11T09:05:37.296Z,17.70
2018-04-11T09:08:04.827Z,17.70
2018-04-11T09:10:32.381Z,17.10
2018-04-11T09:12:59.916Z,17.90
2018-04-11T09:15:27.449Z,18.00
2018-04-11T09:17:54.979Z,18.40
2018-04-11T09:20:22.521Z,18.90
2018-04-11T09:22:50.055Z,19.10
2018-04-11T09:25:17.604Z,19.50
2018-04-11T09:27:45.153Z,19.60
2018-04-11T09:30:12.859Z,20.00
2018-04-11T09:32:40.421Z,20.20
2018-04-11T09:35:08.016Z,20.50
2018-04-11T09:37:35.573Z,20.50
2018-04-11T09:40:03.114Z,20.60
2018-04-11T09:42:42.042Z,21.00
2018-04-11T09:45:09.585Z,20.90
2018-04-11T09:47:37.209Z,21.10
2018-04-11T09:50:04.790Z,21.30
2018-04-11T09:52:32.717Z,21.50
2018-04-11T09:55:01.037Z,21.70
2018-04-11T09:57:28.586Z,21.70
2018-04-11T09:59:56.165Z,21.80
2018-04-11T10:02:23.987Z,20.10
2018-04-11T10:04:52.273Z,18.30
2018-04-11T10:07:19.870Z,18.30
2018-04-11T10:09:47.401Z,19.70
2018-04-11T10:12:14.949Z,20.50
2018-04-11T10:14:58.029Z,20.10
2018-04-11T10:17:25.579Z,20.80
2018-04-11T10:19:53.128Z,21.80
2018-04-11T10:22:20.679Z,21.90
2018-04-11T10:24:48.275Z,21.80
2018-04-11T10:27:15.800Z,22.20
2018-04-11T10:29:43.366Z,22.50
2018-04-11T10:32:10.933Z,22.50
2018-04-11T10:34:38.486Z,22.30
2018-04-11T10:37:06.193Z,22.50
2018-04-11T10:39:33.762Z,22.20
2018-04-11T10:42:01.330Z,22.10
2018-04-11T10:44:28.913Z,22.30
2018-04-11T10:46:56.461Z,22.00
2018-04-11T10:49:24.006Z,22.30
2018-04-11T10:51:51.563Z,22.30
2018-04-11T10:54:19.159Z,21.90
2018-04-11T10:56:46.728Z,22.40
2018-04-11T10:59:14.285Z,22.60
2018-04-11T11:01:41.947Z,22.90
2018-04-11T11:04:16.222Z,23.00
2018-04-11T11:06:43.848Z,23.00
2018-04-11T11:09:11.550Z,21.40
2018-04-11T11:11:39.105Z,22.00
2018-04-11T11:14:06.665Z,21.60
2018-04-11T11:16:36.808Z,18.90
2018-04-11T11:19:04.425Z,19.30
2018-04-11T11:21:32.014Z,19.50
2018-04-11T11:23:59.600Z,19.10
2018-04-11T11:26:27.168Z,18.80
2018-04-11T11:28:54.708Z,18.40
2018-04-11T11:31:22.416Z,17.80
2018-04-11T11:33:49.992Z,17.60
2018-04-11T11:36:17.551Z,18.00
2018-04-11T11:38:45.138Z,17.90
2018-04-11T11:41:12.715Z,18.00
2018-04-11T11:43:41.100Z,17.90
2018-04-11T11:46:08.735Z,17.90
2018-04-11T11:48:36.273Z,17.70
2018-04-11T11:51:03.881Z,17.60
2018-04-11T11:53:31.440Z,17.60
2018-04-11T11:55:58.985Z,17.50
2018-04-11T11:58:26.524Z,17.50
2018-04-11T12:00:54.047Z,17.50
2018-04-11T12:03:21.605Z,17.50
2018-04-11T12:05:49.150Z,17.50
2018-04-11T12:08:16.714Z,17.60
2018-04-11T12:10:44.317Z,17.60
2018-04-11T12:13:12.105Z,17.50
2018-04-11T12:15:39.676Z,17.40
2018-04-11T12:18:07.232Z,17.40
2018-04-11T12:20:34.831Z,17.40
2018-04-11T12:23:02.396Z,17.40
2018-04-11T12:25:29.930Z,17.30
2018-04-11T12:27:58.240Z,17.50
2018-04-11T12:30:25.767Z,17.50
2018-04-11T12:32:54.324Z,18.00
2018-04-11T12:35:21.869Z,18.00
2018-04-11T12:37:49.411Z,17.60
2018-04-11T12:40:16.969Z,17.90
2018-04-11T12:42:44.513Z,18.10
2018-04-11T12:45:12.043Z,18.10
2018-04-11T12:47:39.605Z,18.20
2018-04-11T12:50:07.159Z,17.90
2018-04-11T12:52:34.713Z,18.00
2018-04-11T12:55:02.243Z,17.90
2018-04-11T12:57:29.814Z,18.00
2018-04-11T12:59:57.360Z,18.20
2018-04-11T13:02:24.911Z,17.90
2018-04-11T13:04:52.449Z,17.60
2018-04-11T13:07:19.985Z,18.00
2018-04-11T13:09:47.604Z,18.10
2018-04-11T13:12:15.143Z,18.30
2018-04-11T13:14:42.664Z,18.30
2018-04-11T13:17:10.218Z,18.60
2018-04-11T13:19:37.739Z,17.70
2018-04-11T13:22:05.323Z,17.90
2018-04-11T13:24:32.869Z,17.50
2018-04-11T13:27:00.405Z,17.70
2018-04-11T13:29:27.943Z,17.90
2018-04-11T13:31:55.468Z,17.90
2018-04-11T13:34:23.010Z,18.00
2018-04-11T13:36:50.583Z,18.10
2018-04-11T13:39:18.264Z,18.20
2018-04-11T13:41:45.935Z,18.30
2018-04-11T13:44:13.604Z,18.40
2018-04-11T13:46:41.157Z,17.80
2018-04-11T13:49:08.699Z,17.90
2018-04-11T13:51:36.227Z,18.20
2018-04-11T13:54:04.537Z,17.90
2018-04-11T13:56:32.088Z,17.80
2018-04-11T13:58:59.602Z,18.10
2018-04-11T14:01:27.145Z,17.60
2018-04-11T14:03:54.711Z,17.80
2018-04-11T14:06:22.382Z,17.90
2018-04-11T14:08:49.914Z,17.90
2018-04-11T14:11:17.453Z,17.90
2018-04-11T14:13:45.114Z,17.70
2018-04-11T14:16:12.742Z,17.50
2018-04-11T14:18:41.047Z,17.70
2018-04-11T14:21:08.582Z,17.60
2018-04-11T14:23:36.127Z,17.50
2018-04-11T14:26:04.458Z,17.70
2018-04-11T14:28:33.062Z,17.60
2018-04-11T14:31:00.595Z,17.80
2018-04-11T14:33:28.153Z,17.90
2018-04-11T14:35:55.696Z,18.00
2018-04-11T14:38:23.224Z,18.20
2018-04-11T14:40:50.774Z,18.00
2018-04-11T14:43:19.074Z,17.60
2018-04-11T14:45:46.672Z,17.60
2018-04-11T14:48:14.283Z,17.50
2018-04-11T14:50:42.586Z,17.70
2018-04-11T14:53:10.180Z,17.70
2018-04-11T14:55:37.732Z,17.90
2018-04-11T14:58:05.298Z,18.00
2018-04-11T15:00:32.962Z,17.90
2018-04-11T15:03:00.560Z,17.90
2018-04-11T15:05:28.050Z,18.10
2018-04-11T15:07:55.666Z,18.10
2018-04-11T15:10:24.011Z,18.10
2018-04-11T15:12:51.568Z,18.10
2018-04-11T15:15:19.117Z,18.20
2018-04-11T15:17:46.660Z,18.50
2018-04-11T15:20:15.221Z,17.80
2018-04-11T15:22:43.063Z,17.80
2018-04-11T15:25:11.392Z,17.70
2018-04-11T15:27:39.019Z,17.70
2018-04-11T15:30:07.297Z,17.60
2018-04-11T15:32:34.881Z,17.60
2018-04-11T15:35:02.478Z,17.80
2018-04-11T15:37:30.009Z,17.80
2018-04-11T15:39:57.621Z,17.90
2018-04-11T15:42:26.001Z,17.70
2018-04-11T15:44:54.494Z,17.80
2018-04-11T15:47:22.225Z,17.80
2018-04-11T15:49:49.808Z,17.90
2018-04-11T15:52:17.351Z,17.80
2018-04-11T15:54:44.886Z,17.90
2018-04-11T15:57:12.442Z,17.80
2018-04-11T15:59:40.995Z,17.60
2018-04-11T16:02:08.551Z,17.50
2018-04-11T16:04:37.039Z,17.60
2018-04-11T16:07:05.016Z,17.50
2018-04-11T16:09:32.581Z,17.70
2018-04-11T16:12:01.336Z,17.60
2018-04-11T16:14:29.001Z,17.50
2018-04-11T16:16:56.581Z,17.40
2018-04-11T16:19:24.128Z,17.30
2018-04-11T16:21:51.708Z,17.30
2018-04-11T16:24:19.261Z,17.40
2018-04-11T16:26:47.921Z,17.40
2018-04-11T16:29:15.518Z,17.40
2018-04-11T16:31:43.090Z,17.60
2018-04-11T16:34:10.753Z,17.70
2018-04-11T16:36:38.376Z,17.50
2018-04-11T16:39:05.948Z,17.60
2018-04-11T16:41:33.554Z,17.60
2018-04-11T16:44:01.135Z,17.60
2018-04-11T16:46:28.752Z,17.50
2018-04-11T16:48:56.469Z,17.50
2018-04-11T16:51:24.379Z,17.70
2018-04-11T16:53:51.956Z,17.60
2018-04-11T16:56:20.267Z,18.40
2018-04-11T16:58:47.859Z,18.30
2018-04-11T17:01:15.471Z,18.30
2018-04-11T17:03:43.055Z,18.30
2018-04-11T17:06:10.612Z,17.90
2018-04-11T17:08:38.989Z,17.70
2018-04-11T17:11:06.547Z,17.70
2018-04-11T17:13:42.149Z,17.50
2018-04-11T17:16:10.456Z,17.10
2018-04-11T17:18:37.991Z,17.10
2018-04-11T17:21:18.332Z,16.80
2018-04-11T17:23:58.397Z,16.80
2018-04-11T17:26:38.705Z,16.70
2018-04-11T17:29:19.372Z,16.70
2018-04-11T17:31:46.928Z,16.50
2018-04-11T17:34:14.510Z,16.40
2018-04-11T17:36:42.063Z,16.40
2018-04-11T17:39:10.280Z,16.30
2018-04-11T17:41:38.636Z,16.20
2018-04-11T17:44:06.204Z,16.20
2018-04-11T17:46:34.490Z,16.00
2018-04-11T17:49:02.032Z,16.00
2018-04-11T17:51:29.597Z,16.00
2018-04-11T17:53:57.584Z,16.00
2018-04-11T17:56:25.441Z,15.90
2018-04-11T17:58:53.206Z,15.70
2018-04-11T18:01:21.514Z,15.40
2018-04-11T18:03:49.964Z,15.40
2018-04-11T18:06:18.638Z,15.40
2018-04-11T18:08:46.484Z,15.30
2018-04-11T18:11:14.023Z,15.20
2018-04-11T18:13:41.585Z,15.20
2018-04-11T18:16:09.163Z,15.10
2018-04-11T18:18:36.719Z,15.00
2018-04-11T18:21:04.524Z,14.90
2018-04-11T18:23:32.068Z,14.80
2018-04-11T18:25:59.590Z,14.70
2018-04-11T18:28:27.126Z,14.70
2018-04-11T18:30:54.671Z,14.70
2018-04-11T18:33:22.193Z,14.60
2018-04-11T18:35:50.481Z,14.50
2018-04-11T18:38:18.047Z,14.50
2018-04-11T18:40:45.566Z,14.50
2018-04-11T18:43:13.127Z,14.50
2018-04-11T18:45:40.690Z,14.40
2018-04-11T18:48:08.239Z,14.40
2018-04-11T18:50:36.032Z,14.30
2018-04-11T18:53:03.662Z,14.40
2018-04-11T18:55:31.369Z,14.30
2018-04-11T18:57:58.994Z,14.20
2018-04-11T19:00:31.477Z,14.20
2018-04-11T19:02:59.155Z,14.20
2018-04-11T19:05:26.812Z,14.10
2018-04-11T19:07:55.116Z,14.00
2018-04-11T19:10:22.677Z,14.00
2018-04-11T19:12:50.307Z,14.00
2018-04-11T19:15:18.635Z,14.00
2018-04-11T19:17:46.175Z,14.00
2018-04-11T19:20:14.505Z,14.00
2018-04-11T19:22:42.046Z,14.00
2018-04-11T19:25:15.009Z,13.90
2018-04-11T19:27:42.560Z,13.90
2018-04-11T19:30:10.159Z,13.90
2018-04-11T19:32:37.738Z,13.90
2018-04-11T19:35:05.517Z,13.80
2018-04-11T19:37:33.399Z,13.80
2018-04-11T19:40:00.984Z,13.70
2018-04-11T19:42:28.527Z,13.70
2018-04-11T19:44:56.097Z,13.70
2018-04-11T19:47:24.768Z,13.70
2018-04-11T19:49:52.339Z,13.60
2018-04-11T19:52:20.054Z,13.60
2018-04-11T19:54:48.372Z,13.50
2018-04-11T19:57:15.937Z,13.50
2018-04-11T19:59:44.273Z,13.40
2018-04-11T20:02:12.432Z,13.40
2018-04-11T20:04:39.968Z,13.40
2018-04-11T20:07:07.578Z,13.40
2018-04-11T20:09:35.202Z,13.30
2018-04-11T20:12:02.730Z,13.30
2018-04-11T20:14:30.299Z,13.30
2018-04-11T20:16:57.833Z,13.20
2018-04-11T20:19:25.389Z,13.20
2018-04-11T20:21:53.173Z,13.10
2018-04-11T20:24:20.724Z,13.20
2018-04-11T20:26:48.296Z,13.10
2018-04-11T20:29:15.846Z,13.10
2018-04-11T20:31:44.494Z,13.10
2018-04-11T20:34:12.239Z,13.10
2018-04-11T20:36:39.803Z,13.00
2018-04-11T20:39:14.204Z,12.90
2018-04-11T20:41:41.777Z,12.90
2018-04-11T20:44:10.095Z,12.70
2018-04-11T20:46:37.620Z,12.60
2018-04-11T20:49:05.196Z,12.60
2018-04-11T20:51:33.078Z,12.50
2018-04-11T20:54:03.902Z,12.30
2018-04-11T20:56:31.592Z,12.20
2018-04-11T20:58:59.260Z,12.20
2018-04-11T21:01:26.805Z,12.00
2018-04-11T21:03:54.373Z,11.90
2018-04-11T21:06:26.029Z,11.60
2018-04-11T21:08:53.604Z,11.60
2018-04-11T21:11:23.463Z,11.50
2018-04-11T21:13:51.907Z,11.40
2018-04-11T21:16:20.285Z,11.10
2018-04-11T21:18:48.601Z,11.00
2018-04-11T21:21:16.239Z,10.90
2018-04-11T21:23:43.823Z,10.80
2018-04-11T21:26:11.388Z,10.70
2018-04-11T21:28:38.903Z,10.60
2018-04-11T21:31:07.223Z,10.50
2018-04-11T21:33:35.571Z,10.50
2018-04-11T21:36:03.161Z,10.40
2018-04-11T21:38:31.611Z,10.30
2018-04-11T21:41:06.056Z,10.30
2018-04-11T21:43:33.652Z,10.20
2018-04-11T21:46:01.210Z,10.20
2018-04-11T21:48:30.921Z,10.10
2018-04-11T21:50:58.523Z,10.10
2018-04-11T21:53:26.289Z,10.10
2018-04-11T21:55:53.883Z,10.20
2018-04-11T21:58:21.436Z,10.20
2018-04-11T22:00:48.986Z,10.10
2018-04-11T22:03:16.521Z,10.10
2018-04-11T22:05:44.120Z,10.00
2018-04-11T22:08:11.707Z,9.90
2018-04-11T22:10:39.334Z,9.90
2018-04-11T22:13:06.866Z,9.90
2018-04-11T22:15:34.557Z,9.80
2018-04-11T22:18:02.118Z,9.70
2018-04-11T22:20:29.655Z,9.70
2018-04-11T22:22:57.239Z,9.70
2018-04-11T22:25:24.821Z,9.60
2018-04-11T22:27:53.833Z,9.60
2018-04-11T22:30:21.402Z,9.50
2018-04-11T22:32:49.685Z,9.40
2018-04-11T22:35:17.287Z,9.40
2018-04-11T22:37:44.875Z,9.40
2018-04-11T22:40:12.769Z,9.40
2018-04-11T22:42:40.375Z,9.50
2018-04-11T22:45:07.891Z,9.50
2018-04-11T22:47:35.473Z,9.50
2018-04-11T22:50:21.671Z,9.50
2018-04-11T22:52:50.016Z,9.50
2018-04-11T22:55:18.314Z,9.50
2018-04-11T22:57:45.867Z,9.50
2018-04-11T23:00:13.392Z,9.60
2018-04-11T23:02:41.730Z,9.70
2018-04-11T23:05:09.315Z,9.60
2018-04-11T23:07:36.979Z,9.60
2018-04-11T23:10:04.529Z,9.70
2018-04-11T23:12:32.858Z,9.70
2018-04-11T23:15:00.428Z,9.70
2018-04-11T23:17:28.292Z,9.70
2018-04-11T23:19:56.403Z,9.60
2018-04-11T23:22:24.052Z,9.50
2018-04-11T23:24:51.614Z,9.50
2018-04-11T23:27:19.201Z,9.40
2018-04-11T23:29:47.618Z,9.40
2018-04-11T23:32:15.179Z,9.30
2018-04-11T23:34:42.782Z,9.40
2018-04-11T23:37:10.404Z,9.40
2018-04-11T23:39:37.955Z,9.40
2018-04-11T23:42:05.509Z,9.70
2018-04-11T23:44:33.036Z,9.80
2018-04-11T23:47:01.363Z,10.10
2018-04-11T23:49:28.953Z,10.10
2018-04-11T23:51:56.569Z,10.20
2018-04-11T23:54:24.154Z,10.40
2018-04-11T23:56:51.680Z,10.40
2018-04-11T23:59:19.208Z,10.50
